Strona główna
METAR-TAF:

METAR-TAF

Lotnisko :

Brize Norton, Anglia

Szerokość geograficzna: 51-45N, Długość geograficzna: 001-35W, wysokość: 88 m

Aktualna obserwacja pogody

Raport powstał 25 minut temu, godzina 22:20 UTC
Wiatr 6 kt od zachodnio-południowy zachód
Temperatura 7°C
Wilgotność 76%
Ciśnienie 1006 hPa
Widzialność 10 km lub więcej
Mało chmury na wysokości 3500 ft
Rozproszone chmury na wysokości 9000 ft
Przerywane chmury na wysokości 18000 ft

METAR: EGVN 102220Z 25006KT 9999 FEW035 SCT090 BKN180 07/03 Q1006 NOSIG RMK BLU BLU

czas: 22:45 (22:45 UTC)

Prognoza

Raport powstał 3 godziny i 17 minut temu, godzina 19:28 UTC
Prognoza ważna od 10 godzina 21 UTC do 11 godzina 21 UTC
Wiatr 10 kt od zachód
Widzialność 10 km lub więcej
Mało chmury na wysokości 3000 ft
Prawdopodobieństwo 30% :
Przejściowo
od 11 godzina 12 UTC do 11 godzina 16 UTC
Widzialność: 7000 m
Rozproszone chmury na wysokości 1400 ft
przelotny opad deszczu

TAF: EGVN 101928Z 1021/1121 26010KT 9999 FEW030 PROB30 TEMPO 1112/1116 7000 SHRA SCT014

Obserwacja i prognoza pogody dla ponad 4000 lotnisk (raport METAR i TAF).

Dostępne stacje oznaczono żółtymi i czerwonymi punktami na mapie.

Najedź kursorem aby zobaczyć nazwę stacji.

Kliknij aby zobaczyć obserwacje i prognozy pogody.

Aby zmienić mapę: kliknij na zielony przycisk z czarnym krzyżykiem, aby powiększyć; na zielony przycisk z myślnikiem, aby pomniejszyć; na zielone strzałki, aby przejść do map sąsiednich.


METAR-TAF: